createdAt,value
2023-01-22T00:00:11.948Z,49.04
2023-01-22T00:01:11.946Z,47.03
2023-01-22T00:02:11.992Z,48.79
2023-01-22T00:03:11.956Z,46.22
2023-01-22T00:04:11.933Z,44.93
2023-01-22T00:05:11.914Z,48.20
2023-01-22T00:06:11.907Z,50.71
2023-01-22T00:07:11.903Z,52.11
2023-01-22T00:08:11.935Z,50.24
2023-01-22T00:09:11.885Z,47.83
2023-01-22T00:10:11.878Z,45.03
2023-01-22T00:11:11.887Z,53.39
2023-01-22T00:12:11.869Z,51.19
2023-01-22T00:13:11.894Z,50.76
2023-01-22T00:14:11.885Z,51.83
2023-01-22T00:15:11.859Z,49.98
2023-01-22T00:16:11.857Z,51.83
2023-01-22T00:17:11.817Z,50.93
2023-01-22T00:18:11.844Z,51.76
2023-01-22T00:19:11.807Z,47.99
2023-01-22T00:20:11.825Z,58.69
2023-01-22T00:21:11.792Z,55.97
2023-01-22T00:22:11.782Z,48.18
2023-01-22T00:23:11.808Z,47.44
2023-01-22T00:24:11.771Z,44.74
2023-01-22T00:25:11.765Z,50.61
2023-01-22T00:26:11.758Z,46.29
2023-01-22T00:27:11.752Z,51.69
2023-01-22T00:28:11.775Z,48.75
2023-01-22T00:29:11.735Z,50.33
2023-01-22T00:30:11.726Z,47.40
2023-01-22T00:31:11.858Z,50.61
2023-01-22T00:32:11.802Z,51.13
2023-01-22T00:33:11.754Z,49.26
2023-01-22T00:34:11.701Z,46.02
2023-01-22T00:35:11.691Z,50.19
2023-01-22T00:36:11.690Z,53.60
2023-01-22T00:37:11.679Z,52.79
2023-01-22T00:38:11.704Z,51.10
2023-01-22T00:39:11.681Z,50.18
2023-01-22T00:40:11.650Z,46.56
2023-01-22T00:41:11.644Z,56.47
2023-01-22T00:42:11.651Z,55.48
2023-01-22T00:43:11.655Z,49.57
2023-01-22T00:44:11.639Z,45.07
2023-01-22T00:45:11.632Z,45.93
2023-01-22T00:46:11.683Z,48.36
2023-01-22T00:47:11.614Z,45.64
2023-01-22T00:48:11.615Z,54.21
2023-01-22T00:49:11.592Z,46.89
2023-01-22T00:50:11.581Z,46.52
2023-01-22T00:51:11.682Z,58.30
2023-01-22T00:52:11.564Z,51.66
2023-01-22T00:53:11.584Z,48.97
2023-01-22T00:54:11.552Z,53.08
2023-01-22T00:55:11.542Z,55.68
2023-01-22T00:56:11.548Z,49.71
2023-01-22T00:57:11.540Z,51.21
2023-01-22T00:58:11.589Z,56.98
2023-01-22T00:59:11.515Z,48.00
2023-01-22T01:00:11.506Z,47.69
2023-01-22T01:01:11.539Z,49.76
2023-01-22T01:02:11.583Z,46.99
2023-01-22T01:03:11.507Z,46.85
2023-01-22T01:04:11.489Z,56.15
2023-01-22T01:05:11.463Z,47.74
2023-01-22T01:06:11.469Z,48.38
2023-01-22T01:07:11.454Z,54.16
2023-01-22T01:08:11.486Z,48.66
2023-01-22T01:09:11.435Z,46.70
2023-01-22T01:10:11.432Z,45.65
2023-01-22T01:11:11.424Z,46.85
2023-01-22T01:12:11.437Z,45.94
2023-01-22T01:13:11.518Z,45.93
2023-01-22T01:14:11.399Z,48.12
2023-01-22T01:15:11.404Z,52.86
2023-01-22T01:16:11.432Z,57.30
2023-01-22T01:17:11.377Z,55.06
2023-01-22T01:18:11.366Z,51.05
2023-01-22T01:19:11.384Z,46.60
2023-01-22T01:20:11.362Z,52.33
2023-01-22T01:21:11.346Z,52.97
2023-01-22T01:22:11.337Z,54.90
2023-01-22T01:23:11.330Z,51.17
2023-01-22T01:24:11.350Z,48.08
2023-01-22T01:25:11.320Z,52.09
2023-01-22T01:26:11.336Z,53.27
2023-01-22T01:27:11.302Z,55.64
2023-01-22T01:28:11.295Z,51.34
2023-01-22T01:29:11.410Z,52.43
2023-01-22T01:30:11.285Z,57.51
2023-01-22T01:31:11.401Z,52.16
2023-01-22T01:32:11.274Z,48.40
2023-01-22T01:33:11.266Z,50.30
2023-01-22T01:34:11.281Z,48.84
2023-01-22T01:35:11.263Z,55.02
2023-01-22T01:36:11.242Z,50.64
2023-01-22T01:37:11.226Z,47.68
2023-01-22T01:38:11.224Z,48.51
2023-01-22T01:39:11.246Z,51.56
2023-01-22T01:40:11.205Z,49.73
2023-01-22T01:41:11.207Z,51.78
2023-01-22T01:42:11.199Z,52.62
2023-01-22T01:43:11.189Z,46.10
2023-01-22T01:44:11.216Z,49.19
2023-01-22T01:45:11.261Z,49.53
2023-01-22T01:46:11.164Z,53.01
2023-01-22T01:47:11.163Z,49.12
2023-01-22T01:48:11.161Z,56.26
2023-01-22T01:49:11.174Z,47.84
2023-01-22T01:50:11.137Z,49.13
2023-01-22T01:51:11.126Z,44.59
2023-01-22T01:52:11.121Z,53.51
2023-01-22T01:53:11.129Z,54.67
2023-01-22T01:54:11.136Z,49.09
2023-01-22T01:55:11.115Z,57.39
2023-01-22T01:56:11.089Z,51.04
2023-01-22T01:57:11.099Z,52.20
2023-01-22T01:58:11.077Z,48.32
2023-01-22T01:59:11.093Z,46.90
2023-01-22T02:00:11.065Z,44.55
2023-01-22T02:01:11.155Z,51.91
2023-01-22T02:02:11.140Z,55.75
2023-01-22T02:03:11.044Z,45.92
2023-01-22T02:04:11.056Z,48.09
2023-01-22T02:05:11.026Z,45.29
2023-01-22T02:06:11.024Z,47.55
2023-01-22T02:07:11.023Z,48.77
2023-01-22T02:08:11.006Z,41.82
2023-01-22T02:09:11.027Z,45.12
2023-01-22T02:10:10.993Z,48.41
2023-01-22T02:11:10.986Z,50.48
2023-01-22T02:12:10.980Z,46.62
2023-01-22T02:13:10.981Z,59.68
2023-01-22T02:14:10.994Z,47.59
2023-01-22T02:15:10.956Z,53.15
2023-01-22T02:16:10.979Z,55.06
2023-01-22T02:17:16.817Z,48.40
2023-01-22T02:18:12.027Z,59.24
2023-01-22T02:19:10.948Z,54.72
2023-01-22T02:20:10.928Z,49.62
2023-01-22T02:21:10.917Z,51.53
2023-01-22T02:22:10.910Z,46.46
2023-01-22T02:23:10.898Z,54.79
2023-01-22T02:24:10.935Z,49.23
2023-01-22T02:25:10.892Z,47.51
2023-01-22T02:26:10.900Z,51.40
2023-01-22T02:27:10.874Z,49.37
2023-01-22T02:28:10.863Z,44.76
2023-01-22T02:29:10.887Z,45.06
2023-01-22T02:30:10.855Z,56.08
2023-01-22T02:31:11.016Z,51.60
2023-01-22T02:32:10.837Z,47.04
2023-01-22T02:33:10.823Z,46.86
2023-01-22T02:34:10.924Z,43.13
2023-01-22T02:35:10.813Z,49.50
2023-01-22T02:36:10.802Z,45.99
2023-01-22T02:37:10.794Z,49.97
2023-01-22T02:38:10.788Z,55.19
2023-01-22T02:39:10.803Z,46.72
2023-01-22T02:40:10.777Z,55.50
2023-01-22T02:41:10.767Z,53.12
2023-01-22T02:42:10.755Z,50.71
2023-01-22T02:43:10.753Z,60.31
2023-01-22T02:44:10.780Z,49.83
2023-01-22T02:45:10.746Z,57.95
2023-01-22T02:46:10.725Z,47.76
2023-01-22T02:47:10.724Z,49.88
2023-01-22T02:48:10.715Z,48.80
2023-01-22T02:49:11.531Z,56.22
2023-01-22T02:50:10.788Z,48.79
2023-01-22T02:51:10.755Z,51.18
2023-01-22T02:52:10.713Z,47.02
2023-01-22T02:53:10.689Z,46.42
2023-01-22T02:54:10.697Z,51.60
2023-01-22T02:55:10.665Z,52.41
2023-01-22T02:56:10.670Z,50.53
2023-01-22T02:57:10.651Z,55.22
2023-01-22T02:58:10.648Z,52.07
2023-01-22T02:59:11.672Z,51.24
2023-01-22T03:00:10.636Z,56.51
2023-01-22T03:01:10.674Z,49.61
2023-01-22T03:02:10.676Z,50.54
2023-01-22T03:03:10.601Z,51.00
2023-01-22T03:04:10.644Z,51.93
2023-01-22T03:05:10.585Z,47.24
2023-01-22T03:06:16.508Z,63.56
2023-01-22T03:07:11.647Z,50.32
2023-01-22T03:08:10.579Z,55.79
2023-01-22T03:09:10.561Z,56.13
2023-01-22T03:10:10.578Z,63.01
2023-01-22T03:11:10.539Z,49.87
2023-01-22T03:12:10.543Z,51.44
2023-01-22T03:13:10.529Z,58.94
2023-01-22T03:14:10.519Z,56.35
2023-01-22T03:15:10.539Z,50.24
2023-01-22T03:16:10.550Z,49.02
2023-01-22T03:17:10.493Z,51.64
2023-01-22T03:18:10.491Z,51.77
2023-01-22T03:19:10.485Z,49.08
2023-01-22T03:20:10.508Z,47.86
2023-01-22T03:21:10.465Z,46.01
2023-01-22T03:22:10.460Z,46.02
2023-01-22T03:23:10.545Z,52.47
2023-01-22T03:24:10.448Z,49.35
2023-01-22T03:25:10.463Z,57.68
2023-01-22T03:26:10.424Z,51.83
2023-01-22T03:27:10.427Z,45.86
2023-01-22T03:28:10.416Z,44.45
2023-01-22T03:29:10.407Z,46.25
2023-01-22T03:30:10.444Z,43.41
2023-01-22T03:31:10.406Z,46.37
2023-01-22T03:32:10.405Z,47.25
2023-01-22T03:33:10.379Z,44.85
2023-01-22T03:34:10.365Z,50.75
2023-01-22T03:35:10.388Z,48.95
2023-01-22T03:36:10.352Z,46.24
2023-01-22T03:37:10.346Z,47.07
2023-01-22T03:38:10.339Z,43.19
2023-01-22T03:39:10.409Z,48.57
2023-01-22T03:40:10.349Z,48.71
2023-01-22T03:41:10.342Z,45.31
2023-01-22T03:42:10.298Z,48.38
2023-01-22T03:43:11.306Z,45.26
2023-01-22T03:44:10.293Z,48.40
2023-01-22T03:45:10.320Z,50.10
2023-01-22T03:46:10.346Z,57.60
2023-01-22T03:47:10.280Z,46.76
2023-01-22T03:48:10.273Z,46.01
2023-01-22T03:49:10.270Z,57.30
2023-01-22T03:50:10.295Z,51.77
2023-01-22T03:51:10.305Z,54.97
2023-01-22T03:52:10.240Z,50.43
2023-01-22T03:53:10.230Z,48.53
2023-01-22T03:54:10.230Z,48.82
2023-01-22T03:55:10.317Z,50.99
2023-01-22T03:56:10.210Z,52.06
2023-01-22T03:57:10.203Z,54.88
2023-01-22T03:58:10.200Z,50.71
2023-01-22T03:59:10.208Z,46.50
2023-01-22T04:00:10.209Z,47.98
2023-01-22T04:01:10.238Z,46.43
2023-01-22T04:02:10.217Z,43.01
2023-01-22T04:03:10.153Z,47.48
2023-01-22T04:04:10.141Z,43.37
2023-01-22T04:05:10.164Z,47.58
2023-01-22T04:06:10.132Z,43.89
2023-01-22T04:07:10.123Z,49.36
2023-01-22T04:08:10.120Z,50.42
2023-01-22T04:09:10.118Z,48.70
2023-01-22T04:10:10.137Z,49.59
2023-01-22T04:11:10.178Z,48.65
2023-01-22T04:12:10.100Z,48.15
2023-01-22T04:13:10.073Z,53.39
2023-01-22T04:14:10.069Z,50.31
2023-01-22T04:15:10.058Z,49.08
2023-01-22T04:16:10.211Z,53.64
2023-01-22T04:17:10.049Z,51.88
2023-01-22T04:18:10.046Z,49.89
2023-01-22T04:19:10.033Z,51.88
2023-01-22T04:20:10.059Z,47.32
2023-01-22T04:21:10.026Z,53.11
2023-01-22T04:22:10.023Z,46.58
2023-01-22T04:23:10.010Z,52.14
2023-01-22T04:24:10.003Z,49.06
2023-01-22T04:25:09.992Z,54.16
2023-01-22T04:26:10.006Z,54.60
2023-01-22T04:27:10.050Z,53.54
2023-01-22T04:28:09.969Z,50.52
2023-01-22T04:29:09.964Z,47.19
2023-01-22T04:30:09.963Z,51.19
2023-01-22T04:31:10.044Z,54.55
2023-01-22T04:32:09.941Z,48.84
2023-01-22T04:33:09.942Z,50.42
2023-01-22T04:34:09.928Z,54.78
2023-01-22T04:35:09.917Z,50.56
2023-01-22T04:36:09.936Z,56.83
2023-01-22T04:37:09.901Z,55.30
2023-01-22T04:38:09.901Z,48.05
2023-01-22T04:39:09.895Z,51.54
2023-01-22T04:40:09.883Z,49.83
2023-01-22T04:41:09.898Z,51.00
2023-01-22T04:42:09.883Z,47.23
2023-01-22T04:43:09.938Z,48.60
2023-01-22T04:44:09.844Z,43.41
2023-01-22T04:45:09.840Z,46.65
2023-01-22T04:46:41.786Z,45.79
2023-01-22T04:47:09.839Z,48.90
2023-01-22T04:48:09.828Z,51.30
2023-01-22T04:49:09.814Z,54.41
2023-01-22T04:50:09.809Z,59.69
2023-01-22T04:51:09.894Z,50.98
2023-01-22T04:52:09.791Z,47.42
2023-01-22T04:53:09.787Z,46.43
2023-01-22T04:54:09.782Z,48.76
2023-01-22T04:55:09.770Z,47.56
2023-01-22T04:56:09.787Z,52.82
2023-01-22T04:57:09.758Z,60.45
2023-01-22T04:58:09.750Z,49.64
2023-01-22T04:59:09.830Z,51.71
2023-01-22T05:00:09.737Z,48.05
2023-01-22T05:01:09.831Z,52.86
2023-01-22T05:02:09.757Z,50.07
2023-01-22T05:03:09.721Z,59.35
2023-01-22T05:04:09.712Z,56.40
2023-01-22T05:05:09.714Z,50.80
2023-01-22T05:06:09.726Z,50.97
2023-01-22T05:07:09.687Z,47.22
2023-01-22T05:08:09.682Z,48.41
2023-01-22T05:09:09.675Z,51.31
2023-01-22T05:10:09.663Z,57.72
2023-01-22T05:11:09.686Z,55.71
2023-01-22T05:12:09.653Z,53.58
2023-01-22T05:13:09.647Z,60.46
2023-01-22T05:14:10.580Z,50.38
2023-01-22T05:15:23.078Z,46.82
2023-01-22T05:16:11.763Z,58.89
2023-01-22T05:17:09.652Z,49.55
2023-01-22T05:18:09.604Z,44.67
2023-01-22T05:19:09.639Z,47.35
2023-01-22T05:20:09.607Z,43.03
2023-01-22T05:21:09.613Z,52.30
2023-01-22T05:22:09.584Z,46.21
2023-01-22T05:23:09.569Z,57.48
2023-01-22T05:24:09.572Z,49.59
2023-01-22T05:25:09.564Z,43.03
2023-01-22T05:26:09.577Z,44.49
2023-01-22T05:27:09.551Z,47.37
2023-01-22T05:28:09.534Z,49.44
2023-01-22T05:29:09.544Z,50.15
2023-01-22T05:30:09.527Z,57.95
2023-01-22T05:31:09.733Z,56.92
2023-01-22T05:32:09.508Z,47.95
2023-01-22T05:33:11.405Z,54.49
2023-01-22T05:34:10.492Z,44.81
2023-01-22T05:35:09.487Z,49.99
2023-01-22T05:36:09.512Z,49.87
2023-01-22T05:37:09.464Z,51.19
2023-01-22T05:38:09.465Z,61.34
2023-01-22T05:39:09.472Z,50.44
2023-01-22T05:40:09.465Z,46.96
2023-01-22T05:41:09.467Z,48.58
2023-01-22T05:42:09.430Z,42.83
2023-01-22T05:43:09.433Z,52.11
2023-01-22T05:44:09.423Z,51.86
2023-01-22T05:45:09.412Z,49.00
2023-01-22T05:46:09.444Z,51.63
2023-01-22T05:47:09.480Z,50.13
2023-01-22T05:48:09.393Z,52.65
2023-01-22T05:49:09.381Z,51.74
2023-01-22T05:50:09.376Z,49.74
2023-01-22T05:51:09.433Z,51.05
2023-01-22T05:52:09.357Z,48.24
2023-01-22T05:53:10.361Z,45.36
2023-01-22T05:54:09.347Z,48.45
2023-01-22T05:55:09.342Z,55.63
2023-01-22T05:56:09.361Z,51.51
2023-01-22T05:57:09.327Z,51.35
2023-01-22T05:58:09.324Z,51.48
2023-01-22T05:59:09.308Z,52.07
2023-01-22T06:00:09.309Z,48.74
2023-01-22T06:01:09.323Z,49.64
2023-01-22T06:02:09.287Z,45.74
2023-01-22T06:03:09.354Z,46.19
2023-01-22T06:04:09.275Z,44.39
2023-01-22T06:05:09.310Z,47.58
2023-01-22T06:06:09.280Z,60.08
2023-01-22T06:07:09.245Z,48.58
2023-01-22T06:08:09.267Z,45.99
2023-01-22T06:09:09.238Z,45.40
2023-01-22T06:10:09.221Z,50.85
2023-01-22T06:11:09.239Z,46.26
2023-01-22T06:12:09.208Z,49.34
2023-01-22T06:13:09.191Z,47.55
2023-01-22T06:14:09.203Z,42.80
2023-01-22T06:15:09.179Z,44.88
2023-01-22T06:16:09.218Z,48.45
2023-01-22T06:17:09.172Z,45.74
2023-01-22T06:18:09.171Z,59.21
2023-01-22T06:19:09.236Z,49.11
2023-01-22T06:20:09.143Z,51.26
2023-01-22T06:21:09.174Z,43.27
2023-01-22T06:22:09.146Z,47.33
2023-01-22T06:23:09.127Z,44.29
2023-01-22T06:24:09.105Z,45.41
2023-01-22T06:25:09.105Z,51.35
2023-01-22T06:26:09.095Z,60.58
2023-01-22T06:27:09.133Z,45.42
2023-01-22T06:28:09.089Z,48.46
2023-01-22T06:29:09.086Z,45.60
2023-01-22T06:30:09.054Z,42.74
2023-01-22T06:31:09.134Z,48.04
2023-01-22T06:32:09.084Z,46.00
2023-01-22T06:33:09.040Z,45.92
2023-01-22T06:34:09.031Z,55.39
2023-01-22T06:35:09.090Z,50.92
2023-01-22T06:36:09.025Z,60.36
2023-01-22T06:37:09.042Z,46.35
2023-01-22T06:38:09.007Z,44.55
2023-01-22T06:39:08.989Z,51.13
2023-01-22T06:40:09.002Z,47.60
2023-01-22T06:41:08.988Z,49.77
2023-01-22T06:42:08.985Z,49.67
2023-01-22T06:43:10.595Z,49.04
2023-01-22T06:44:09.946Z,43.83
2023-01-22T06:45:08.947Z,60.93
2023-01-22T06:46:08.985Z,46.54
2023-01-22T06:47:08.964Z,46.69
2023-01-22T06:48:08.939Z,48.38
2023-01-22T06:49:08.920Z,46.63
2023-01-22T06:50:08.909Z,43.21
2023-01-22T06:51:09.040Z,49.88
2023-01-22T06:52:08.943Z,46.72
2023-01-22T06:53:08.891Z,49.00
2023-01-22T06:54:08.878Z,46.75
2023-01-22T06:55:08.870Z,42.29
2023-01-22T06:56:08.919Z,46.54
2023-01-22T06:57:08.879Z,44.92
2023-01-22T06:58:08.848Z,53.51
2023-01-22T06:59:08.853Z,55.41
2023-01-22T07:00:08.835Z,51.02
2023-01-22T07:01:08.828Z,46.17
2023-01-22T07:02:08.849Z,44.45
2023-01-22T07:03:08.813Z,51.09
2023-01-22T07:04:08.814Z,45.99
2023-01-22T07:05:08.799Z,45.31
2023-01-22T07:06:08.801Z,54.71
2023-01-22T07:07:08.887Z,51.47
2023-01-22T07:08:08.784Z,45.75
2023-01-22T07:09:08.773Z,47.64
2023-01-22T07:10:08.769Z,47.41
2023-01-22T07:11:08.755Z,47.38
2023-01-22T07:12:08.773Z,48.45
2023-01-22T07:13:08.736Z,45.95
2023-01-22T07:14:08.740Z,49.80
2023-01-22T07:15:08.724Z,51.60
2023-01-22T07:16:08.826Z,54.31
2023-01-22T07:17:08.740Z,45.02
2023-01-22T07:18:08.689Z,46.03
2023-01-22T07:19:09.693Z,49.56
2023-01-22T07:20:08.695Z,44.64
2023-01-22T07:21:08.673Z,49.80
2023-01-22T07:22:08.728Z,53.58
2023-01-22T07:23:08.733Z,52.04
2023-01-22T07:24:08.668Z,45.34
2023-01-22T07:25:08.647Z,53.19
2023-01-22T07:26:08.665Z,49.80
2023-01-22T07:27:08.668Z,54.23
2023-01-22T07:28:08.639Z,48.00
2023-01-22T07:29:08.618Z,47.29
2023-01-22T07:30:08.626Z,53.44
2023-01-22T07:31:08.702Z,53.51
2023-01-22T07:32:08.620Z,62.33
2023-01-22T07:33:08.598Z,52.97
2023-01-22T07:34:08.592Z,53.20
2023-01-22T07:35:08.584Z,50.49
2023-01-22T07:36:08.576Z,53.92
2023-01-22T07:37:08.591Z,47.17
2023-01-22T07:38:08.561Z,53.54
2023-01-22T07:39:08.611Z,54.81
2023-01-22T07:40:08.542Z,58.15
2023-01-22T07:41:20.182Z,46.36
2023-01-22T07:42:10.560Z,52.09
2023-01-22T07:43:08.538Z,50.58
2023-01-22T07:44:08.521Z,52.67
2023-01-22T07:45:08.498Z,54.79
2023-01-22T07:46:08.493Z,48.83
2023-01-22T07:47:08.511Z,52.20
2023-01-22T07:48:08.478Z,50.72
2023-01-22T07:49:08.466Z,52.71
2023-01-22T07:50:08.458Z,49.78
2023-01-22T07:51:08.496Z,54.08
2023-01-22T07:52:08.468Z,54.84
2023-01-22T07:53:08.446Z,63.49
2023-01-22T07:54:08.432Z,53.99
2023-01-22T07:55:08.520Z,47.48
2023-01-22T07:56:08.412Z,49.15
2023-01-22T07:57:08.427Z,54.40
2023-01-22T07:58:08.397Z,64.33
2023-01-22T07:59:08.388Z,54.64
2023-01-22T08:00:08.377Z,46.68
2023-01-22T08:01:08.432Z,52.69
2023-01-22T08:02:08.496Z,49.16
2023-01-22T08:03:08.353Z,48.32
2023-01-22T08:04:08.367Z,50.74
2023-01-22T08:05:08.335Z,52.35
2023-01-22T08:06:08.333Z,50.73
2023-01-22T08:07:08.349Z,55.71
2023-01-22T08:08:08.313Z,51.64
2023-01-22T08:09:08.428Z,50.33
2023-01-22T08:10:08.302Z,51.47
2023-01-22T08:11:08.365Z,57.93
2023-01-22T08:12:08.314Z,61.11
2023-01-22T08:13:08.277Z,68.23
2023-01-22T08:14:08.327Z,73.68
2023-01-22T08:15:08.257Z,60.21
2023-01-22T08:16:08.261Z,63.76
2023-01-22T08:17:08.272Z,63.51
2023-01-22T08:18:08.237Z,76.03
2023-01-22T08:19:08.224Z,74.80
2023-01-22T08:20:08.226Z,75.18
2023-01-22T08:21:08.221Z,74.08
2023-01-22T08:22:08.237Z,73.50
2023-01-22T08:23:08.210Z,72.35
2023-01-22T08:24:08.246Z,73.57
2023-01-22T08:25:08.179Z,71.82
2023-01-22T08:26:08.186Z,70.53
2023-01-22T08:27:08.294Z,61.51
2023-01-22T08:28:08.183Z,54.49
2023-01-22T08:29:08.148Z,58.52
2023-01-22T08:30:08.155Z,57.43
2023-01-22T08:31:16.472Z,58.25
2023-01-22T08:32:10.253Z,58.15
2023-01-22T08:33:08.175Z,62.69
2023-01-22T08:34:08.126Z,59.01
2023-01-22T08:35:08.165Z,57.47
2023-01-22T08:36:08.106Z,57.49
2023-01-22T08:37:08.132Z,57.31
2023-01-22T08:38:08.113Z,56.68
2023-01-22T08:39:08.096Z,57.09
2023-01-22T08:40:08.069Z,55.67
2023-01-22T08:41:08.068Z,57.18
2023-01-22T08:42:08.094Z,56.96
2023-01-22T08:43:08.119Z,55.85
2023-01-22T08:44:08.043Z,58.01
2023-01-22T08:45:08.035Z,56.94
2023-01-22T08:46:08.128Z,66.20
2023-01-22T08:47:08.051Z,58.10
2023-01-22T08:48:08.028Z,57.70
2023-01-22T08:49:08.041Z,52.80
2023-01-22T08:50:08.016Z,56.74
2023-01-22T08:51:08.107Z,59.11
2023-01-22T08:52:08.009Z,60.28
2023-01-22T08:53:07.979Z,56.18
2023-01-22T08:54:07.965Z,54.51
2023-01-22T08:55:07.959Z,54.98
2023-01-22T08:56:07.958Z,52.77
2023-01-22T08:57:07.975Z,55.34
2023-01-22T08:58:08.962Z,56.60
2023-01-22T08:59:08.014Z,53.99
2023-01-22T09:00:07.923Z,55.44
2023-01-22T09:01:08.023Z,55.04
2023-01-22T09:02:07.977Z,52.60
2023-01-22T09:03:07.914Z,50.61
2023-01-22T09:04:07.928Z,53.63
2023-01-22T09:05:07.895Z,53.25
2023-01-22T09:06:07.886Z,51.95
2023-01-22T09:07:07.901Z,55.39
2023-01-22T09:08:07.866Z,56.00
2023-01-22T09:09:07.859Z,58.38
2023-01-22T09:10:07.861Z,55.35
2023-01-22T09:11:07.848Z,57.83
2023-01-22T09:12:07.860Z,56.54
2023-01-22T09:13:07.834Z,51.45
2023-01-22T09:14:07.818Z,53.97
2023-01-22T09:15:07.885Z,58.61
2023-01-22T09:16:07.803Z,51.82
2023-01-22T09:17:07.822Z,60.05
2023-01-22T09:18:07.791Z,57.32
2023-01-22T09:19:07.794Z,54.68
2023-01-22T09:20:07.776Z,57.15
2023-01-22T09:21:07.774Z,52.79
2023-01-22T09:22:07.801Z,53.97
2023-01-22T09:23:07.754Z,56.64
2023-01-22T09:24:07.753Z,54.74
2023-01-22T09:25:07.755Z,59.72
2023-01-22T09:26:07.738Z,56.74
2023-01-22T09:27:07.726Z,53.05
2023-01-22T09:28:07.748Z,52.33
2023-01-22T09:29:07.723Z,50.62
2023-01-22T09:30:07.708Z,50.03
2023-01-22T09:31:07.864Z,49.35
2023-01-22T09:32:07.715Z,51.76
2023-01-22T09:33:07.708Z,54.99
2023-01-22T09:34:07.679Z,55.04
2023-01-22T09:35:07.680Z,54.59
2023-01-22T09:36:07.657Z,54.76
2023-01-22T09:37:07.663Z,52.74
2023-01-22T09:38:07.683Z,57.97
2023-01-22T09:39:07.644Z,53.87
2023-01-22T09:40:07.635Z,54.32
2023-01-22T09:41:07.625Z,54.87
2023-01-22T09:42:07.612Z,56.53
2023-01-22T09:43:07.672Z,56.06
2023-01-22T09:44:07.617Z,53.49
2023-01-22T09:45:07.607Z,50.52
2023-01-22T09:46:07.633Z,51.71
2023-01-22T09:47:07.666Z,55.99
2023-01-22T09:48:07.600Z,55.05
2023-01-22T09:49:07.576Z,49.40
2023-01-22T09:50:07.553Z,57.33
2023-01-22T09:51:07.640Z,56.65
2023-01-22T09:52:07.541Z,55.93
2023-01-22T09:53:07.556Z,57.00
2023-01-22T09:54:07.545Z,54.17
2023-01-22T09:55:07.524Z,57.49
2023-01-22T09:56:07.517Z,56.52
2023-01-22T09:57:07.516Z,52.49
2023-01-22T09:58:07.524Z,52.35
2023-01-22T09:59:07.494Z,59.77
2023-01-22T10:00:07.491Z,55.51
2023-01-22T10:01:07.515Z,54.88
2023-01-22T10:02:07.516Z,56.28
2023-01-22T10:03:07.558Z,58.26
2023-01-22T10:04:07.458Z,55.34
2023-01-22T10:05:07.450Z,53.88
2023-01-22T10:06:07.444Z,51.72
2023-01-22T10:07:07.430Z,52.38
2023-01-22T10:08:07.445Z,55.14
2023-01-22T10:09:07.450Z,55.72
2023-01-22T10:10:07.405Z,52.25
2023-01-22T10:11:07.403Z,56.27
2023-01-22T10:12:07.390Z,52.04
2023-01-22T10:13:07.423Z,54.21
2023-01-22T10:14:07.377Z,53.58
2023-01-22T10:15:07.369Z,55.32
2023-01-22T10:16:07.355Z,53.85
2023-01-22T10:17:07.353Z,56.06
2023-01-22T10:18:07.373Z,55.80
2023-01-22T10:19:07.429Z,54.99
2023-01-22T10:20:07.328Z,61.19
2023-01-22T10:21:07.331Z,57.90
2023-01-22T10:22:07.314Z,55.14
2023-01-22T10:23:07.340Z,57.03
2023-01-22T10:24:07.295Z,56.63
2023-01-22T10:25:07.287Z,54.62
2023-01-22T10:26:07.293Z,57.45
2023-01-22T10:27:07.269Z,55.96
2023-01-22T10:28:07.290Z,55.77
2023-01-22T10:29:07.260Z,58.18
2023-01-22T10:30:07.251Z,56.59
2023-01-22T10:31:07.346Z,56.96
2023-01-22T10:32:07.237Z,52.87
2023-01-22T10:33:07.255Z,53.18
2023-01-22T10:34:07.223Z,58.80
2023-01-22T10:35:07.287Z,55.06
2023-01-22T10:36:07.213Z,56.83
2023-01-22T10:37:07.204Z,57.54
2023-01-22T10:38:07.222Z,52.54
2023-01-22T10:39:07.193Z,58.45
2023-01-22T10:40:07.178Z,55.33
2023-01-22T10:41:07.167Z,55.61
2023-01-22T10:42:07.155Z,55.96
2023-01-22T10:43:07.173Z,58.28
2023-01-22T10:44:08.146Z,53.88
2023-01-22T10:45:07.137Z,56.14
2023-01-22T10:46:39.674Z,59.03
2023-01-22T10:47:07.162Z,59.66
2023-01-22T10:48:07.178Z,55.28
2023-01-22T10:49:07.140Z,57.66
2023-01-22T10:50:07.283Z,58.57
2023-01-22T10:51:07.274Z,57.07
2023-01-22T10:52:07.096Z,56.83
2023-01-22T10:53:07.149Z,58.58
2023-01-22T10:54:07.082Z,58.75
2023-01-22T10:55:07.075Z,57.97
2023-01-22T10:56:07.084Z,60.12
2023-01-22T10:57:08.066Z,58.13
2023-01-22T10:58:07.101Z,56.96
2023-01-22T10:59:07.080Z,52.29
2023-01-22T11:00:07.075Z,56.98
2023-01-22T11:01:07.185Z,57.20
2023-01-22T11:02:07.065Z,60.50
2023-01-22T11:03:07.018Z,55.50
2023-01-22T11:04:07.080Z,58.03
2023-01-22T11:05:07.023Z,56.82
2023-01-22T11:06:07.035Z,57.07
2023-01-22T11:07:07.061Z,56.88
2023-01-22T11:08:07.037Z,62.47
2023-01-22T11:09:07.014Z,59.96
2023-01-22T11:10:06.965Z,58.66
2023-01-22T11:11:07.013Z,56.45
2023-01-22T11:12:06.972Z,56.75
2023-01-22T11:13:07.011Z,56.96
2023-01-22T11:14:07.005Z,56.95
2023-01-22T11:15:06.945Z,57.75
2023-01-22T11:16:07.009Z,56.23
2023-01-22T11:17:06.935Z,58.58
2023-01-22T11:18:06.945Z,58.07
2023-01-22T11:19:06.955Z,54.72
2023-01-22T11:20:06.892Z,54.42
2023-01-22T11:21:06.935Z,54.21
2023-01-22T11:22:06.891Z,60.25
2023-01-22T11:23:06.948Z,58.08
2023-01-22T11:24:06.920Z,56.31
2023-01-22T11:25:08.254Z,59.12
2023-01-22T11:26:07.880Z,58.62
2023-01-22T11:27:06.903Z,59.43
2023-01-22T11:28:06.895Z,57.55
2023-01-22T11:29:06.950Z,55.29
2023-01-22T11:30:06.837Z,57.83
2023-01-22T11:31:06.928Z,56.94
2023-01-22T11:32:06.819Z,57.37
2023-01-22T11:33:06.852Z,55.99
2023-01-22T11:34:06.863Z,55.01
2023-01-22T11:35:06.810Z,57.44
2023-01-22T11:36:09.474Z,55.23
2023-01-22T11:37:06.786Z,56.98
2023-01-22T11:38:06.838Z,54.02
2023-01-22T11:39:06.850Z,57.58
2023-01-22T11:40:06.799Z,58.53
2023-01-22T11:41:06.771Z,61.44
2023-01-22T11:42:06.712Z,56.74
2023-01-22T11:43:08.987Z,56.27
2023-01-22T11:44:06.734Z,59.40
2023-01-22T11:45:06.776Z,55.79
2023-01-22T11:46:06.703Z,57.09
2023-01-22T11:47:06.688Z,56.83
2023-01-22T11:48:06.757Z,60.66
2023-01-22T11:49:06.731Z,55.06
2023-01-22T11:50:06.763Z,57.60
2023-01-22T11:51:06.749Z,56.68
2023-01-22T11:52:06.686Z,58.46
2023-01-22T11:53:06.735Z,61.38
2023-01-22T11:54:06.642Z,59.42
2023-01-22T11:55:06.766Z,56.21
2023-01-22T11:56:06.652Z,58.79
2023-01-22T11:57:06.645Z,58.81
2023-01-22T11:58:06.628Z,57.53
2023-01-22T11:59:06.660Z,59.69
2023-01-22T12:00:06.725Z,59.21
2023-01-22T12:01:06.593Z,56.40
2023-01-22T12:02:06.648Z,56.32
2023-01-22T12:03:06.594Z,59.60
2023-01-22T12:04:07.631Z,59.80
2023-01-22T12:05:06.652Z,58.15
2023-01-22T12:06:06.561Z,57.99
2023-01-22T12:07:06.611Z,59.01
2023-01-22T12:08:06.573Z,60.85
2023-01-22T12:09:06.638Z,55.22
2023-01-22T12:10:06.629Z,58.73
2023-01-22T12:11:12.388Z,57.70
2023-01-22T12:12:07.601Z,57.62
2023-01-22T12:13:06.604Z,54.78
2023-01-22T12:14:06.562Z,58.01
2023-01-22T12:15:06.635Z,60.09
2023-01-22T12:16:06.599Z,55.90
2023-01-22T12:17:06.513Z,59.96
2023-01-22T12:18:06.523Z,58.14
2023-01-22T12:19:06.494Z,55.28
2023-01-22T12:20:06.512Z,58.11
2023-01-22T12:21:06.473Z,60.83
2023-01-22T12:22:06.483Z,56.50
2023-01-22T12:23:06.441Z,56.64
2023-01-22T12:24:06.449Z,56.06
2023-01-22T12:25:06.491Z,54.90
2023-01-22T12:26:06.459Z,56.66
2023-01-22T12:27:06.500Z,58.13
2023-01-22T12:28:06.524Z,55.87
2023-01-22T12:29:06.476Z,61.61
2023-01-22T12:30:06.437Z,58.10
2023-01-22T12:31:06.505Z,56.99
2023-01-22T12:32:06.372Z,56.95
2023-01-22T12:33:06.376Z,53.71
2023-01-22T12:34:06.336Z,57.24
2023-01-22T12:35:06.468Z,58.30
2023-01-22T12:36:06.417Z,55.26
2023-01-22T12:37:06.424Z,59.35
2023-01-22T12:38:06.362Z,57.00
2023-01-22T12:39:06.377Z,57.39
2023-01-22T12:40:06.382Z,56.92
2023-01-22T12:41:06.343Z,55.57
2023-01-22T12:42:06.345Z,57.08
2023-01-22T12:43:06.348Z,58.64
2023-01-22T12:44:06.324Z,62.30
2023-01-22T12:45:06.377Z,56.97
2023-01-22T12:46:06.269Z,56.78
2023-01-22T12:47:06.262Z,59.50
2023-01-22T12:48:06.228Z,58.66
2023-01-22T12:49:06.261Z,59.13
2023-01-22T12:50:06.311Z,56.48
2023-01-22T12:51:06.425Z,52.85
2023-01-22T12:52:06.279Z,59.35